createdAt,value
2018-09-15T00:01:16.491Z,24.00
2018-09-15T00:03:44.975Z,23.67
2018-09-15T00:06:13.291Z,20.40
2018-09-15T00:08:41.663Z,20.00
2018-09-15T00:11:10.060Z,24.50
2018-09-15T00:13:38.431Z,22.30
2018-09-15T00:16:06.803Z,24.17
2018-09-15T00:18:35.183Z,24.60
2018-09-15T00:21:03.780Z,21.73
2018-09-15T00:23:32.129Z,23.57
2018-09-15T00:26:00.480Z,21.00
2018-09-15T00:28:28.842Z,25.47
2018-09-15T00:30:57.220Z,23.53
2018-09-15T00:33:25.523Z,21.27
2018-09-15T00:35:53.854Z,24.30
2018-09-15T00:38:22.218Z,20.10
2018-09-15T00:40:50.594Z,23.50
2018-09-15T00:43:18.950Z,25.73
2018-09-15T00:45:47.333Z,25.47
2018-09-15T00:48:15.725Z,21.10
2018-09-15T00:50:44.072Z,20.23
2018-09-15T00:53:12.386Z,30.23
2018-09-15T00:55:40.768Z,27.00
2018-09-15T00:58:09.130Z,22.63
2018-09-15T01:00:37.520Z,24.70
2018-09-15T01:03:06.144Z,27.97
2018-09-15T01:05:34.492Z,28.17
2018-09-15T01:08:02.862Z,23.53
2018-09-15T01:10:31.237Z,21.90
2018-09-15T01:12:59.587Z,21.40
2018-09-15T01:15:27.952Z,24.97
2018-09-15T01:17:56.300Z,22.57
2018-09-15T01:20:24.736Z,25.50
2018-09-15T01:22:53.112Z,27.90
2018-09-15T01:25:21.428Z,28.13
2018-09-15T01:27:50.062Z,23.37
2018-09-15T01:30:18.457Z,27.57
2018-09-15T01:32:46.771Z,26.93
2018-09-15T01:35:15.128Z,24.67
2018-09-15T01:37:43.728Z,28.23
2018-09-15T01:40:12.070Z,23.67
2018-09-15T01:42:40.441Z,18.80
2018-09-15T01:45:08.741Z,19.47
2018-09-15T01:47:37.156Z,20.10
2018-09-15T01:50:05.543Z,25.80
2018-09-15T01:52:33.903Z,25.60
2018-09-15T01:55:02.279Z,24.17
2018-09-15T01:57:30.704Z,21.13
2018-09-15T01:59:59.043Z,25.33
2018-09-15T02:02:27.679Z,25.47
2018-09-15T02:04:56.015Z,27.33
2018-09-15T02:07:24.411Z,30.33
2018-09-15T02:09:52.779Z,32.93
2018-09-15T02:12:21.136Z,28.10
2018-09-15T02:14:49.580Z,28.53
2018-09-15T02:17:17.941Z,26.87
2018-09-15T02:19:46.304Z,22.70
2018-09-15T02:22:14.694Z,24.20
2018-09-15T02:24:43.060Z,27.60
2018-09-15T02:27:11.458Z,26.77
2018-09-15T02:29:39.838Z,23.37
2018-09-15T02:32:08.162Z,24.43
2018-09-15T02:34:36.560Z,24.57
2018-09-15T02:37:04.976Z,22.97
2018-09-15T02:39:33.328Z,22.03
2018-09-15T02:42:01.677Z,22.57
2018-09-15T02:44:30.075Z,22.67
2018-09-15T02:46:58.456Z,19.93
2018-09-15T02:49:26.827Z,22.63
2018-09-15T02:51:55.166Z,19.53
2018-09-15T02:54:23.570Z,23.90
2018-09-15T02:56:51.921Z,22.40
2018-09-15T02:59:20.257Z,20.43
2018-09-15T03:01:48.614Z,20.83
2018-09-15T03:04:16.918Z,23.43
2018-09-15T03:06:45.269Z,32.73
2018-09-15T03:09:14.079Z,24.23
2018-09-15T03:11:42.445Z,25.57
2018-09-15T03:14:10.811Z,27.33
2018-09-15T03:16:39.491Z,28.23
2018-09-15T03:19:07.979Z,33.83
2018-09-15T03:21:36.339Z,28.07
2018-09-15T03:24:04.718Z,32.00
2018-09-15T03:26:33.075Z,34.43
2018-09-15T03:29:01.736Z,32.20
2018-09-15T03:31:30.105Z,29.37
2018-09-15T03:33:58.455Z,32.57
2018-09-15T03:36:26.808Z,29.63
2018-09-15T03:38:55.187Z,26.60
2018-09-15T03:41:23.606Z,28.87
2018-09-15T03:43:51.925Z,33.03
2018-09-15T03:46:20.314Z,24.47
2018-09-15T03:48:48.700Z,31.47
2018-09-15T03:51:17.088Z,27.50
2018-09-15T03:53:45.439Z,23.07
2018-09-15T03:56:14.149Z,25.90
2018-09-15T03:58:42.496Z,24.63
2018-09-15T04:01:10.871Z,23.57
2018-09-15T04:03:39.235Z,20.07
2018-09-15T04:06:07.840Z,24.67
2018-09-15T04:08:36.220Z,25.27
2018-09-15T04:11:04.581Z,19.40
2018-09-15T04:13:33.280Z,22.30
2018-09-15T04:16:01.632Z,20.00
2018-09-15T04:18:29.989Z,20.70
2018-09-15T04:20:58.352Z,21.90
2018-09-15T04:23:26.712Z,20.87
2018-09-15T04:25:55.068Z,23.07
2018-09-15T04:28:23.497Z,20.23
2018-09-15T04:30:51.785Z,19.77
2018-09-15T04:33:20.126Z,21.63
2018-09-15T04:35:48.484Z,17.63
2018-09-15T04:38:16.810Z,16.73
2018-09-15T04:40:45.172Z,19.43
2018-09-15T04:43:13.504Z,20.13
2018-09-15T04:45:41.870Z,18.60
2018-09-15T04:48:10.229Z,23.83
2018-09-15T04:50:38.606Z,25.43
2018-09-15T04:53:06.960Z,17.40
2018-09-15T04:55:35.318Z,16.87
2018-09-15T04:58:03.726Z,17.87
2018-09-15T05:00:32.076Z,15.27
2018-09-15T05:03:00.540Z,17.43
2018-09-15T05:05:28.942Z,16.90
2018-09-15T05:07:57.308Z,15.70
2018-09-15T05:10:25.654Z,16.53
2018-09-15T05:12:54.099Z,17.27
2018-09-15T05:15:22.371Z,17.17
2018-09-15T05:17:50.719Z,20.43
2018-09-15T05:20:19.351Z,15.67
2018-09-15T05:22:47.738Z,19.47
2018-09-15T05:25:16.115Z,18.20
2018-09-15T05:27:44.475Z,17.57
2018-09-15T05:30:12.821Z,16.33
2018-09-15T05:32:41.633Z,21.97
2018-09-15T05:35:10.029Z,16.43
2018-09-15T05:37:38.395Z,18.63
2018-09-15T05:40:06.839Z,16.00
2018-09-15T05:42:35.191Z,16.93
2018-09-15T05:45:03.630Z,16.93
2018-09-15T05:47:32.214Z,16.50
2018-09-15T05:50:00.577Z,20.33
2018-09-15T05:52:28.930Z,16.23
2018-09-15T05:54:57.435Z,19.93
2018-09-15T05:57:25.820Z,16.60
2018-09-15T05:59:54.325Z,16.83
2018-09-15T06:02:23.004Z,16.57
2018-09-15T06:04:51.353Z,16.23
2018-09-15T06:07:19.883Z,15.30
2018-09-15T06:09:48.219Z,16.37
2018-09-15T06:12:16.634Z,15.77
2018-09-15T06:14:44.974Z,13.83
2018-09-15T06:17:13.384Z,14.13
2018-09-15T06:19:41.713Z,13.40
2018-09-15T06:22:10.078Z,13.93
2018-09-15T06:24:38.456Z,13.10
2018-09-15T06:27:06.842Z,14.50
2018-09-15T06:29:35.342Z,14.53
2018-09-15T06:32:03.782Z,13.73
2018-09-15T06:34:32.146Z,13.23
2018-09-15T06:37:00.882Z,14.10
2018-09-15T06:39:29.286Z,14.43
2018-09-15T06:41:57.634Z,13.93
2018-09-15T06:44:26.018Z,14.60
2018-09-15T06:46:54.400Z,14.50
2018-09-15T06:49:22.830Z,14.80
2018-09-15T06:51:51.226Z,14.63
2018-09-15T06:54:19.582Z,16.33
2018-09-15T06:56:47.910Z,14.47
2018-09-15T06:59:16.343Z,14.57
2018-09-15T07:01:44.722Z,18.17
2018-09-15T07:04:13.398Z,14.97
2018-09-15T07:06:43.152Z,14.53
2018-09-15T07:09:13.986Z,13.77
2018-09-15T07:11:42.364Z,21.10
2018-09-15T07:14:11.322Z,14.67
2018-09-15T07:16:40.302Z,13.73
2018-09-15T07:19:08.765Z,13.90
2018-09-15T07:21:37.151Z,14.27
2018-09-15T07:24:05.580Z,13.60
2018-09-15T07:26:34.082Z,14.70
2018-09-15T07:29:02.464Z,14.33
2018-09-15T07:31:30.866Z,14.30
2018-09-15T07:33:59.187Z,14.77
2018-09-15T07:36:27.583Z,13.53
2018-09-15T07:38:56.115Z,13.83
2018-09-15T07:41:24.537Z,13.90
2018-09-15T07:43:52.887Z,13.97
2018-09-15T07:46:21.301Z,13.30
2018-09-15T07:48:49.735Z,12.97
2018-09-15T07:51:18.083Z,12.70
2018-09-15T07:53:46.515Z,18.00
2018-09-15T07:56:16.181Z,13.80
2018-09-15T07:58:44.640Z,10.87
2018-09-15T08:01:14.509Z,11.37
2018-09-15T08:03:43.436Z,10.23
2018-09-15T08:06:16.932Z,9.73
2018-09-15T08:08:45.376Z,10.10
2018-09-15T08:11:13.786Z,8.13
2018-09-15T08:13:42.290Z,8.50
2018-09-15T08:16:11.396Z,14.67
2018-09-15T08:18:40.600Z,15.20
2018-09-15T08:21:09.050Z,8.37
2018-09-15T08:23:37.519Z,7.67
2018-09-15T08:26:06.329Z,6.47
2018-09-15T08:28:34.805Z,7.27
2018-09-15T08:31:03.284Z,6.80
2018-09-15T08:33:31.798Z,7.37
2018-09-15T08:36:00.236Z,6.03
2018-09-15T08:38:28.934Z,5.43
2018-09-15T08:40:57.398Z,6.47
2018-09-15T08:43:26.510Z,7.63
2018-09-15T08:45:58.992Z,6.63
2018-09-15T08:48:29.072Z,5.70
2018-09-15T08:50:57.627Z,6.57
2018-09-15T08:53:26.178Z,6.60
2018-09-15T08:55:55.233Z,5.47
2018-09-15T08:58:24.403Z,5.20
2018-09-15T09:00:55.006Z,6.93
2018-09-15T09:03:23.801Z,5.63
2018-09-15T09:05:52.299Z,4.83
2018-09-15T09:08:20.734Z,6.13
2018-09-15T09:10:49.295Z,6.23
2018-09-15T09:13:17.796Z,6.50
2018-09-15T09:15:46.292Z,6.40
2018-09-15T09:18:15.520Z,5.20
2018-09-15T09:20:44.025Z,5.63
2018-09-15T09:23:12.519Z,3.63
2018-09-15T09:25:41.733Z,3.33
2018-09-15T09:28:10.296Z,3.80
2018-09-15T09:30:38.869Z,3.37
2018-09-15T09:33:08.962Z,4.00
2018-09-15T09:35:37.784Z,4.33
2018-09-15T09:38:06.510Z,3.15
2018-09-15T09:40:34.969Z,3.80
2018-09-15T09:43:03.451Z,6.27
2018-09-15T09:45:31.875Z,2.60
2018-09-15T09:48:00.504Z,2.93
2018-09-15T09:50:29.233Z,3.03
2018-09-15T09:52:58.179Z,4.30
2018-09-15T09:55:27.057Z,1.90
2018-09-15T09:57:56.607Z,3.12
2018-09-15T10:00:31.247Z,2.20
2018-09-15T10:03:04.067Z,3.05
2018-09-15T10:05:32.613Z,3.72
2018-09-15T10:08:01.120Z,2.17
2018-09-15T10:10:29.666Z,1.87
2018-09-15T10:12:59.203Z,3.00
2018-09-15T10:15:27.688Z,2.95
2018-09-15T10:17:56.262Z,2.40
2018-09-15T10:20:24.736Z,2.07
2018-09-15T10:22:53.276Z,1.83
2018-09-15T10:25:21.783Z,5.03
2018-09-15T10:27:50.250Z,5.30
2018-09-15T10:30:18.758Z,3.22
2018-09-15T10:32:47.588Z,2.55
2018-09-15T10:35:16.104Z,3.47
2018-09-15T10:37:44.572Z,2.47
2018-09-15T10:40:13.064Z,2.45
2018-09-15T10:42:41.510Z,2.27
2018-09-15T10:45:09.972Z,2.43
2018-09-15T10:47:38.544Z,2.43
2018-09-15T10:50:07.938Z,1.90
2018-09-15T10:52:38.180Z,3.87
2018-09-15T10:55:06.762Z,1.55
2018-09-15T10:57:35.098Z,2.02
2018-09-15T11:00:03.562Z,2.58
2018-09-15T11:02:31.928Z,1.77
2018-09-15T11:05:00.350Z,1.82
2018-09-15T11:07:28.803Z,1.95
2018-09-15T11:09:57.169Z,1.47
2018-09-15T11:12:25.535Z,1.67
2018-09-15T11:14:53.940Z,2.43
2018-09-15T11:17:22.561Z,2.93
2018-09-15T11:19:50.926Z,3.33
2018-09-15T11:22:19.340Z,2.85
2018-09-15T11:24:47.722Z,7.45
2018-09-15T11:27:16.124Z,9.23
2018-09-15T11:29:44.502Z,1.02
2018-09-15T11:32:12.922Z,1.00
2018-09-15T11:34:41.312Z,2.83
2018-09-15T11:37:09.819Z,2.70
2018-09-15T11:39:38.220Z,1.17
2018-09-15T11:42:06.630Z,1.10
2018-09-15T11:44:35.033Z,0.93
2018-09-15T11:47:03.708Z,1.57
2018-09-15T11:49:32.065Z,3.17
2018-09-15T11:52:00.435Z,4.27
2018-09-15T11:54:28.835Z,1.00
2018-09-15T11:56:57.209Z,2.43
2018-09-15T11:59:25.690Z,1.90
2018-09-15T12:01:54.046Z,2.00
2018-09-15T12:04:22.407Z,1.60
2018-09-15T12:06:50.844Z,2.03
2018-09-15T12:09:19.179Z,4.10
2018-09-15T12:11:47.592Z,1.27
2018-09-15T12:14:16.025Z,2.30
2018-09-15T12:16:44.435Z,1.93
2018-09-15T12:19:12.757Z,2.50
2018-09-15T12:21:41.201Z,2.70
2018-09-15T12:24:09.569Z,4.40
2018-09-15T12:26:37.946Z,3.00
2018-09-15T12:29:06.373Z,2.03
2018-09-15T12:31:34.757Z,1.10
2018-09-15T12:34:03.136Z,3.33
2018-09-15T12:36:31.508Z,2.20
2018-09-15T12:38:59.905Z,3.20
2018-09-15T12:41:28.280Z,1.67
2018-09-15T12:43:56.664Z,1.57
2018-09-15T12:46:25.108Z,3.90
2018-09-15T12:48:53.488Z,1.53
2018-09-15T12:51:21.826Z,1.60
2018-09-15T12:53:50.172Z,3.27
2018-09-15T12:56:18.591Z,0.87
2018-09-15T12:58:47.068Z,2.13
2018-09-15T13:01:15.414Z,2.13
2018-09-15T13:03:43.817Z,1.23
2018-09-15T13:06:12.217Z,1.00
2018-09-15T13:08:40.608Z,1.13
2018-09-15T13:11:08.982Z,3.23
2018-09-15T13:13:37.414Z,2.90
2018-09-15T13:16:05.890Z,2.10
2018-09-15T13:18:34.275Z,4.13
2018-09-15T13:21:02.657Z,1.50
2018-09-15T13:23:31.062Z,1.20
2018-09-15T13:25:59.411Z,1.23
2018-09-15T13:28:28.837Z,1.83
2018-09-15T13:30:57.203Z,2.20
2018-09-15T13:33:25.557Z,2.50
2018-09-15T13:35:53.929Z,1.30
2018-09-15T13:38:22.331Z,3.47
2018-09-15T13:40:50.735Z,2.37
2018-09-15T13:43:19.085Z,2.20
2018-09-15T13:45:47.447Z,2.50
2018-09-15T13:48:15.831Z,2.03
2018-09-15T13:50:44.204Z,1.23
2018-09-15T13:53:12.675Z,3.03
2018-09-15T13:55:40.988Z,1.80
2018-09-15T13:58:09.375Z,1.27
2018-09-15T14:00:37.781Z,2.47
2018-09-15T14:03:06.307Z,1.30
2018-09-15T14:05:34.687Z,2.43
2018-09-15T14:08:03.077Z,1.97
2018-09-15T14:10:31.486Z,1.03
2018-09-15T14:12:59.871Z,0.97
2018-09-15T14:15:28.231Z,1.53
2018-09-15T14:17:56.631Z,3.30
2018-09-15T14:20:25.022Z,1.30
2018-09-15T14:22:53.444Z,2.83
2018-09-15T14:25:21.809Z,2.43
2018-09-15T14:27:50.162Z,1.50
2018-09-15T14:30:18.517Z,3.27
2018-09-15T14:32:46.848Z,2.27
2018-09-15T14:35:15.271Z,1.43
2018-09-15T14:37:43.589Z,1.00
2018-09-15T14:40:12.026Z,1.63
2018-09-15T14:42:40.396Z,1.53
2018-09-15T14:45:08.792Z,1.60
2018-09-15T14:47:37.188Z,4.10
2018-09-15T14:50:05.649Z,1.70
2018-09-15T14:52:34.041Z,2.93
2018-09-15T14:55:02.522Z,2.67
2018-09-15T14:57:30.877Z,4.73
2018-09-15T14:59:59.243Z,1.60
2018-09-15T15:02:27.644Z,3.03
2018-09-15T15:04:56.020Z,2.00
2018-09-15T15:07:24.408Z,3.73
2018-09-15T15:09:52.759Z,1.20
2018-09-15T15:12:21.128Z,3.90
2018-09-15T15:14:49.512Z,1.00
2018-09-15T15:17:17.984Z,1.20
2018-09-15T15:19:46.483Z,2.53
2018-09-15T15:22:14.749Z,1.20
2018-09-15T15:24:43.160Z,1.50
2018-09-15T15:27:11.559Z,2.30
2018-09-15T15:29:39.939Z,2.10
2018-09-15T15:32:08.318Z,1.37
2018-09-15T15:34:36.718Z,2.83
2018-09-15T15:37:05.232Z,1.57
2018-09-15T15:39:33.636Z,2.17
2018-09-15T15:42:01.991Z,1.47
2018-09-15T15:44:30.503Z,1.10
2018-09-15T15:46:58.872Z,1.67
2018-09-15T15:49:27.280Z,4.70
2018-09-15T15:51:55.775Z,1.63
2018-09-15T15:54:24.188Z,0.83
2018-09-15T15:56:52.611Z,1.47
2018-09-15T15:59:20.890Z,2.23
2018-09-15T16:01:49.296Z,2.97
2018-09-15T16:04:17.654Z,2.33
2018-09-15T16:06:45.994Z,1.73
2018-09-15T16:09:14.360Z,1.87
2018-09-15T16:11:42.769Z,3.90
2018-09-15T16:14:11.150Z,0.73
2018-09-15T16:16:39.585Z,1.20
2018-09-15T16:19:07.985Z,1.27
2018-09-15T16:21:36.410Z,1.93
2018-09-15T16:24:05.050Z,2.67
2018-09-15T16:26:33.463Z,4.20
2018-09-15T16:29:01.820Z,1.23
2018-09-15T16:31:30.214Z,1.57
2018-09-15T16:33:58.609Z,1.20
2018-09-15T16:36:27.117Z,2.87
2018-09-15T16:38:55.621Z,2.73
2018-09-15T16:41:23.979Z,2.77
2018-09-15T16:43:52.432Z,3.83
2018-09-15T16:46:20.821Z,2.03
2018-09-15T16:48:49.335Z,2.87
2018-09-15T16:51:17.720Z,4.27
2018-09-15T16:53:46.256Z,2.40
2018-09-15T16:56:14.702Z,3.07
2018-09-15T16:58:43.119Z,2.20
2018-09-15T17:01:11.483Z,2.07
2018-09-15T17:03:39.852Z,3.20
2018-09-15T17:06:08.236Z,1.67
2018-09-15T17:08:36.617Z,2.00
2018-09-15T17:11:05.126Z,1.87
2018-09-15T17:13:33.502Z,2.23
2018-09-15T17:16:01.870Z,2.70
2018-09-15T17:18:30.500Z,1.33
2018-09-15T17:20:58.881Z,1.77
2018-09-15T17:23:27.309Z,2.53
2018-09-15T17:25:55.637Z,1.97
2018-09-15T17:28:24.137Z,2.83
2018-09-15T17:30:53.001Z,3.07
2018-09-15T17:33:21.327Z,5.23
2018-09-15T17:35:49.785Z,3.77
2018-09-15T17:38:18.420Z,2.13
2018-09-15T17:40:46.776Z,2.73
2018-09-15T17:43:15.154Z,4.17
2018-09-15T17:45:43.669Z,3.27
2018-09-15T17:48:12.007Z,3.13
2018-09-15T17:50:40.402Z,3.77
2018-09-15T17:53:08.832Z,3.60
2018-09-15T17:55:37.999Z,4.30
2018-09-15T17:58:06.352Z,3.10
2018-09-15T18:00:34.835Z,3.70
2018-09-15T18:03:03.226Z,3.73
2018-09-15T18:05:31.607Z,3.90
2018-09-15T18:08:01.105Z,2.87
2018-09-15T18:10:29.752Z,3.00
2018-09-15T18:12:58.132Z,4.57
2018-09-15T18:15:26.530Z,2.43
2018-09-15T18:17:54.943Z,2.13
2018-09-15T18:20:23.311Z,2.43
2018-09-15T18:22:51.691Z,3.53
2018-09-15T18:25:20.061Z,2.67
2018-09-15T18:27:48.451Z,3.23
2018-09-15T18:30:16.811Z,3.63
2018-09-15T18:32:45.190Z,3.27
2018-09-15T18:35:13.523Z,4.83
2018-09-15T18:37:42.123Z,3.73
2018-09-15T18:40:10.522Z,5.50
2018-09-15T18:42:39.198Z,3.70
2018-09-15T18:45:07.623Z,5.07
2018-09-15T18:47:36.057Z,3.53
2018-09-15T18:50:04.709Z,2.03
2018-09-15T18:52:33.096Z,4.00
2018-09-15T18:55:01.472Z,2.77
2018-09-15T18:57:29.847Z,4.53
2018-09-15T18:59:58.340Z,4.37
2018-09-15T19:02:26.708Z,2.97
2018-09-15T19:04:55.184Z,2.13
2018-09-15T19:07:24.425Z,3.07
2018-09-15T19:09:52.829Z,3.50
2018-09-15T19:12:21.348Z,2.10
2018-09-15T19:14:49.791Z,2.80
2018-09-15T19:17:18.088Z,3.27
2018-09-15T19:19:47.476Z,2.23
2018-09-15T19:22:15.828Z,4.23
2018-09-15T19:24:44.528Z,2.50
2018-09-15T19:27:12.920Z,4.53
2018-09-15T19:29:41.351Z,2.33
2018-09-15T19:32:09.820Z,4.53
2018-09-15T19:34:38.190Z,3.90
2018-09-15T19:37:06.872Z,3.90
2018-09-15T19:39:35.326Z,3.47
2018-09-15T19:42:04.742Z,6.37
2018-09-15T19:44:33.162Z,3.50
2018-09-15T19:47:01.518Z,4.30
2018-09-15T19:49:29.891Z,3.60
2018-09-15T19:51:58.289Z,3.17
2018-09-15T19:54:26.670Z,3.00
2018-09-15T19:56:55.820Z,4.10
2018-09-15T19:59:24.683Z,3.93
2018-09-15T20:01:53.034Z,3.50
2018-09-15T20:04:21.730Z,5.00
2018-09-15T20:06:50.130Z,6.30
2018-09-15T20:09:18.497Z,5.97
2018-09-15T20:11:47.504Z,6.57
2018-09-15T20:14:15.947Z,5.70
2018-09-15T20:16:43.213Z,7.43
2018-09-15T20:19:10.542Z,10.03
2018-09-15T20:21:37.852Z,8.23
2018-09-15T20:24:06.288Z,17.80
2018-09-15T20:26:35.079Z,31.40
2018-09-15T20:29:03.435Z,25.50
2018-09-15T20:31:31.901Z,16.90
2018-09-15T20:34:00.216Z,11.80
2018-09-15T20:36:28.620Z,11.43
2018-09-15T20:38:57.705Z,8.80
2018-09-15T20:41:26.111Z,11.37
2018-09-15T20:43:54.515Z,7.87
2018-09-15T20:46:22.885Z,8.53
2018-09-15T20:48:51.361Z,9.03
2018-09-15T20:51:19.733Z,8.13
2018-09-15T20:53:48.155Z,6.10
2018-09-15T20:56:16.576Z,10.07
2018-09-15T20:58:44.915Z,8.10
2018-09-15T21:01:13.512Z,6.00
2018-09-15T21:03:41.876Z,6.50
2018-09-15T21:06:10.235Z,10.60
2018-09-15T21:08:38.579Z,7.53
2018-09-15T21:11:06.981Z,9.37
2018-09-15T21:13:35.316Z,13.63
2018-09-15T21:16:03.872Z,16.00
2018-09-15T21:18:32.403Z,14.30
2018-09-15T21:21:00.785Z,14.97
2018-09-15T21:23:29.571Z,11.13
2018-09-15T21:25:57.992Z,11.47
2018-09-15T21:28:26.598Z,11.80
2018-09-15T21:30:54.973Z,10.43
2018-09-15T21:33:23.376Z,12.93
2018-09-15T21:35:51.735Z,9.87
2018-09-15T21:38:20.541Z,11.30
2018-09-15T21:40:48.932Z,12.73
2018-09-15T21:43:17.316Z,10.30
2018-09-15T21:45:45.676Z,17.23
2018-09-15T21:48:14.380Z,16.00
2018-09-15T21:50:42.746Z,14.73
2018-09-15T21:53:11.086Z,17.63
2018-09-15T21:55:39.467Z,14.07
2018-09-15T21:58:07.836Z,15.37
2018-09-15T22:00:36.290Z,17.40
2018-09-15T22:03:04.673Z,14.83
2018-09-15T22:05:33.073Z,18.10
2018-09-15T22:08:01.471Z,15.63
2018-09-15T22:10:29.940Z,16.13
2018-09-15T22:12:58.274Z,21.83
2018-09-15T22:15:27.744Z,15.83
2018-09-15T22:17:57.637Z,15.33
2018-09-15T22:20:26.149Z,18.10
2018-09-15T22:22:54.515Z,16.93
2018-09-15T22:25:22.998Z,19.40
2018-09-15T22:27:51.400Z,19.33
2018-09-15T22:30:19.868Z,21.10
2018-09-15T22:32:48.260Z,14.20
2018-09-15T22:35:17.299Z,18.27
2018-09-15T22:37:45.890Z,12.77
2018-09-15T22:40:14.276Z,13.07
2018-09-15T22:42:42.700Z,13.10
2018-09-15T22:45:11.021Z,14.47
2018-09-15T22:47:39.350Z,14.07
2018-09-15T22:50:07.715Z,10.33
2018-09-15T22:52:36.657Z,10.83
2018-09-15T22:55:05.011Z,11.47
2018-09-15T22:57:33.688Z,13.30
2018-09-15T23:00:02.256Z,12.10
2018-09-15T23:02:31.734Z,11.63
2018-09-15T23:05:00.078Z,10.90
2018-09-15T23:07:28.436Z,11.57
2018-09-15T23:09:57.172Z,11.43
2018-09-15T23:12:25.545Z,9.97
2018-09-15T23:14:53.924Z,10.03
2018-09-15T23:17:22.264Z,9.90
2018-09-15T23:19:50.597Z,8.97
2018-09-15T23:22:18.928Z,9.63
2018-09-15T23:24:47.272Z,8.20
2018-09-15T23:27:15.899Z,9.13
2018-09-15T23:29:44.250Z,10.20
2018-09-15T23:32:12.618Z,9.77
2018-09-15T23:34:41.022Z,10.17
2018-09-15T23:37:09.372Z,9.90
2018-09-15T23:39:37.710Z,11.70
2018-09-15T23:42:06.108Z,15.27
2018-09-15T23:44:34.442Z,13.27
2018-09-15T23:47:02.828Z,9.60
2018-09-15T23:49:31.198Z,12.63
2018-09-15T23:51:59.668Z,8.90
2018-09-15T23:54:28.346Z,8.10
2018-09-15T23:56:57.296Z,8.37
2018-09-15T23:59:25.680Z,6.53
